Latest Coastal Weather Observations for Mackay Racecourse

IDQ60701

Issued at 11:42 pm EST Wednesday 10 August 2022 (issued every 10 minutes, with the page automatically refreshed every 10 minutes)

About coastal observations | Map of coastal stations | Coastal observations for QLD | Marine services | Other Formats
Station Details ID: 033329 Name: OORALEA RACECOURSE (MACKAY TURF CLUB) Lat: -21.17 Lon: 149.15 Height: 10.31 m
Data from the previous 72 hours. | See also: Recent months at Mackay Racecourse
Date/Time
EST
Wind Sea
Height
m
Swell Vis
km
Cloud Weather Temp
°C
Press
MSL
hPa
Rain since
9am
mm
Dir  Spd
kts
Gust
kts
Height
m
Period
s
Dir
10/11:30pm ESE 9 14 - - - - - - - 18.8 - 0.0
10/11:00pm ESE 9 15 - - - - - - - 18.9 - 0.0
10/10:30pm ESE 7 11 - - - - - - - 18.7 - 0.0
10/10:00pm E 7 13 - - - - - - - 18.8 - 0.0
10/09:30pm E 7 13 - - - - - - - 18.8 - 0.0
10/09:00pm ESE 7 11 - - - - - - - 18.7 - 0.0
10/08:30pm ESE 8 13 - - - - - - - 18.9 - 0.0
10/08:00pm ESE 7 12 - - - - - - - 18.9 - 0.0
10/07:30pm SE 4 8 - - - - - - - 18.1 - 0.0
10/07:00pm SE 5 9 - - - - - - - 18.6 - 0.0
10/06:30pm SE 7 10 - - - - - - - 18.6 - 0.0
10/06:00pm ESE 7 12 - - - - - - - 18.7 - 0.0
10/05:30pm ESE 9 14 - - - - - - - 19.2 - 0.0
10/05:00pm ESE 11 15 - - - - - - - 19.7 - 0.0
10/04:30pm ESE 11 17 - - - - - - - 20.1 - 0.0
10/04:00pm ESE 11 18 - - - - - - - 20.3 - 0.0
10/03:30pm ESE 10 16 - - - - - - - 20.6 - 0.0
10/03:00pm ESE 12 18 - - - - - - - 20.6 - 0.0
10/02:30pm ESE 13 18 - - - - - - - 20.5 - 0.0
10/02:00pm ESE 13 19 - - - - - - - 20.5 - 0.0
10/01:30pm ESE 12 17 - - - - - - - 20.9 - 0.0
10/01:00pm ESE 12 18 - - - - - - - 21.1 - 0.0
10/12:30pm SE 13 18 - - - - - - - 20.4 - 0.0
10/12:00pm ESE 12 18 - - - - - - - 21.0 - 0.0
10/11:30am SE 11 19 - - - - - - - 21.1 - 0.0
10/11:00am SE 11 16 - - - - - - - 21.1 - 0.0
10/10:30am SE 9 16 - - - - - - - 20.9 - 0.0
10/10:00am SE 8 12 - - - - - - - 20.1 - 0.0
10/09:30am SSE 4 7 - - - - - - - 19.1 - 0.0
10/09:00am WSW 3 5 - - - - - - - 16.5 - 0.0
10/08:30am N 1 2 - - - - - - - 13.9 - 0.0
10/08:00am NE 2 4 - - - - - - - 11.6 - 0.0
10/07:30am NE 3 5 - - - - - - - 9.9 - 0.0
10/07:00am CALM 0 0 - - - - - - - 7.9 - 0.0
10/06:30am SW 4 5 - - - - - - - 7.9 - 0.0
10/06:00am SW 3 4 - - - - - - - 7.6 - 0.0
10/05:30am SW 3 4 - - - - - - - 7.6 - 0.0
10/05:00am ESE 3 5 - - - - - - - 7.8 - 0.0
10/04:30am ESE 2 5 - - - - - - - 8.0 - 0.0
10/04:00am ESE 3 4 - - - - - - - 8.3 - 0.0
10/03:30am ESE 3 4 - - - - - - - 8.5 - 0.0
10/03:00am ESE 2 4 - - - - - - - 8.8 - 0.0
10/02:30am ESE 2 3 - - - - - - - 8.9 - 0.0
10/02:00am ESE 2 3 - - - - - - - 9.0 - 0.0
10/01:30am ESE 2 3 - - - - - - - 9.5 - 0.0
10/01:00am ESE 3 4 - - - - - - - 9.9 - 0.0
10/12:30am ESE 3 5 - - - - - - - 10.0 - 0.0
10/12:00am ESE 2 3 - - - - - - - 9.9 - 0.0
 
Date/Time
EST
Wind Sea
Height
m
Swell Vis
km
Cloud Weather Temp
°C
Press
MSL
hPa
Rain since
9am
mm
Dir  Spd
kts
Gust
kts
Height
m
Period
s
Dir
09/11:30pm CALM 0 1 - - - - - - - 9.8 - 0.0
09/11:00pm CALM 0 0 - - - - - - - 10.0 - 0.0
09/10:30pm ESE 1 1 - - - - - - - 10.5 - 0.0
09/10:00pm CALM 0 0 - - - - - - - 10.6 - 0.0
09/09:30pm CALM 0 0 - - - - - - - 11.4 - 0.0
09/09:00pm CALM 0 0 - - - - - - - 12.3 - 0.0
09/08:30pm ESE 2 3 - - - - - - - 13.3 - 0.0
09/08:00pm ESE 1 3 - - - - - - - 12.6 - 0.0
09/07:30pm ESE 2 4 - - - - - - - 15.6 - 0.0
09/07:00pm ESE 3 5 - - - - - - - 17.4 - 0.0
09/06:30pm E 3 5 - - - - - - - 17.7 - 0.0
09/06:00pm ESE 4 8 - - - - - - - 18.1 - 0.0
09/05:30pm ESE 6 8 - - - - - - - 18.7 - 0.0
09/05:00pm ESE 9 13 - - - - - - - 19.3 - 0.0
09/04:30pm ESE 9 15 - - - - - - - 20.0 - 0.0
09/04:00pm ESE 10 15 - - - - - - - 20.1 - 0.0
09/03:30pm E 9 15 - - - - - - - 20.3 - 0.0
09/03:00pm ESE 10 15 - - - - - - - 20.5 - 0.0
09/02:30pm ESE 11 15 - - - - - - - 20.6 - 0.0
09/02:00pm ESE 10 16 - - - - - - - 21.1 - 0.0
09/01:30pm ESE 11 16 - - - - - - - 20.9 - 0.0
09/01:00pm ESE 10 15 - - - - - - - 21.1 - 0.0
09/12:30pm SE 7 12 - - - - - - - 21.1 - 0.0
09/12:00pm ESE 9 12 - - - - - - - 20.9 - 0.0
09/11:30am SE 7 13 - - - - - - - 20.8 - 0.0
09/11:00am SE 9 15 - - - - - - - 20.5 - 0.0
09/10:30am SSE 9 15 - - - - - - - 20.6 - 0.0
09/10:00am SSE 8 13 - - - - - - - 20.0 - 0.0
09/09:30am S 5 8 - - - - - - - 18.3 - 0.0
09/09:00am S 3 7 - - - - - - - 16.2 - 0.0
09/08:30am SE 2 4 - - - - - - - 14.5 - 0.0
09/08:00am SE 4 5 - - - - - - - 12.1 - 0.0
09/07:30am SE 2 3 - - - - - - - 9.9 - 0.0
09/07:00am SE 2 3 - - - - - - - 8.1 - 0.0
09/06:30am SE 4 5 - - - - - - - 7.9 - 0.0
09/06:00am SE 3 4 - - - - - - - 7.8 - 0.0
09/05:30am SE 2 4 - - - - - - - 8.4 - 0.0
09/05:00am SE 1 5 - - - - - - - 8.4 - 0.0
09/04:30am SE 2 3 - - - - - - - 8.6 - 0.0
09/04:00am SE 2 4 - - - - - - - 8.4 - 0.0
09/03:30am SE 2 3 - - - - - - - 8.0 - 0.0
09/03:00am SE 1 4 - - - - - - - 8.6 - 0.0
09/02:30am SE 1 3 - - - - - - - 9.0 - 0.0
09/02:00am SE 2 3 - - - - - - - 9.4 - 0.0
09/01:30am SE 2 3 - - - - - - - 9.6 - 0.0
09/01:00am SE 1 3 - - - - - - - 9.8 - 0.0
09/12:30am CALM 0 0 - - - - - - - 10.3 - 0.0
09/12:00am CALM 0 0 - - - - - - - 10.7 - 0.0
 
Date/Time
EST
Wind Sea
Height
m
Swell Vis
km
Cloud Weather Temp
°C
Press
MSL
hPa
Rain since
9am
mm
Dir  Spd
kts
Gust
kts
Height
m
Period
s
Dir
08/11:30pm CALM 0 0 - - - - - - - 10.7 - 0.0
08/11:00pm CALM 0 0 - - - - - - - 10.9 - 0.0
08/10:30pm SE 1 2 - - - - - - - 11.9 - 0.0
08/10:00pm SE 1 2 - - - - - - - 12.6 - 0.0
08/09:30pm SE 3 4 - - - - - - - 13.3 - 0.0
08/09:00pm SE 2 3 - - - - - - - 13.9 - 0.0
08/08:30pm CALM 0 0 - - - - - - - 14.7 - 0.0
08/08:00pm SE 1 2 - - - - - - - 15.8 - 0.0
08/07:30pm SE 4 6 - - - - - - - 17.6 - 0.0
08/07:00pm ESE 4 7 - - - - - - - 18.2 - 0.0
08/06:30pm ESE 6 9 - - - - - - - 18.5 - 0.0
08/06:00pm ESE 5 8 - - - - - - - 18.5 - 0.0
08/05:30pm ESE 7 10 - - - - - - - 19.1 - 0.0
08/05:00pm ESE 7 12 - - - - - - - 19.8 - 0.0
08/04:30pm ESE 10 16 - - - - - - - 19.9 - 0.0
08/04:00pm ESE 11 16 - - - - - - - 20.4 - 0.0
08/03:30pm ESE 9 14 - - - - - - - 20.9 - 0.0
08/03:00pm ESE 13 19 - - - - - - - 20.3 - 0.0
08/02:30pm ESE 13 19 - - - - - - - 20.7 - 0.0
08/02:00pm ESE 12 18 - - - - - - - 21.1 - 0.0
08/01:30pm ESE 11 17 - - - - - - - 21.5 - 0.0
08/01:00pm ESE 14 19 - - - - - - - 21.1 - 0.0
08/12:30pm ESE 13 17 - - - - - - - 21.8 - 0.0
08/12:00pm SE 9 13 - - - - - - - 22.6 - 0.0
08/11:30am SE 10 15 - - - - - - - 21.8 - 0.0
08/11:00am ESE 9 14 - - - - - - - 21.2 - 0.0
08/10:30am SE 7 12 - - - - - - - 21.3 - 0.0
08/10:00am SSE 8 12 - - - - - - - 20.7 - 0.0
08/09:30am SE 9 12 - - - - - - - 20.1 - 0.0
08/09:00am SE 7 11 - - - - - - - 19.3 - 0.0
08/08:30am S 5 7 - - - - - - - 18.2 - 0.0
08/08:00am SSE 3 4 - - - - - - - 15.7 - 0.0
08/07:30am SSE 2 3 - - - - - - - 14.2 - 0.0
08/07:00am CALM 0 2 - - - - - - - 13.0 - 0.0
08/06:30am SSE 1 3 - - - - - - - 12.9 - 0.0
08/06:00am CALM 0 0 - - - - - - - 12.9 - 0.0
08/05:30am SSE 2 3 - - - - - - - 13.1 - 0.0
08/05:00am SSE 2 2 - - - - - - - 13.6 - 0.0
08/04:30am SSE 2 3 - - - - - - - 14.1 - 0.0
08/04:00am SSE 3 4 - - - - - - - 14.5 - 0.0
08/03:30am SSE 3 4 - - - - - - - 14.6 - 0.0
08/03:00am SSE 2 3 - - - - - - - 14.2 - 0.0
08/02:30am CALM 0 0 - - - - - - - 14.7 - 0.0
08/02:00am SSE 1 3 - - - - - - - 15.1 - 0.0
08/01:30am SSE 2 3 - - - - - - - 15.5 - 0.0
08/01:00am SSE 2 3 - - - - - - - 15.7 - 0.0
08/12:30am SSE 3 4 - - - - - - - 16.3 - 0.0
08/12:00am SSE 2 3 - - - - - - - 16.3 - 0.0

Other formats

Comma delimited format used in spreadsheet applications
http://www.bom.gov.au/fwo/IDQ60701/IDQ60701.94352.axf

JavaScript Object Notation format (JSON) in row-major order
http://www.bom.gov.au/fwo/IDQ60701/IDQ60701.94352.json

Data quality

Most of these data are generated automatically and are frequently updated. Quality checks on data are not normally performed. It is possible for incorrect values to appear. Refer to information at About Latest Weather Observations and please check the disclaimer before using these data.